Chu-tung, Taiwan
Current Conditions -  °F | °C
As of 6:07 AM on Friday 19 Dec 2014 (Local Time) from RCTP Reporting Station
Light Rain Light Rain  
Wind Chill: 61°   Ceiling: 4500
Heat Index: 61°   Visibility: 6mi
Dew Point: 52°   Wind: 5mph
Humidity: 72%   Direction: 130°SE
Pressure: 30.21"   Gusts: NA
Location:  24.73°N, 121.08°E
Report Text: RCTP 182207Z 13004KT 050V200 9999 -RA FEW015 BKN045 BKN10016/11 Q1023 NOSIG RMK A3022
Loading
Personal Weather Stations






























Interactive Weather Map New forecast layout! Learn more

10-Day Weather Forecast

Advertisements
Track Severe Weather on mobile